createdAt,value
2022-11-15T00:00:54.508Z,95115.56
2022-11-15T00:03:23.877Z,95114.88
2022-11-15T00:05:50.869Z,95112.59
2022-11-15T00:08:17.531Z,95094.63
2022-11-15T00:10:44.286Z,95086.34
2022-11-15T00:13:14.374Z,95098.38
2022-11-15T00:15:42.036Z,95095.41
2022-11-15T00:18:14.079Z,95098.38
2022-11-15T00:20:40.666Z,95089.34
2022-11-15T00:23:07.534Z,95071.38
2022-11-15T00:25:34.771Z,95075.19
2022-11-15T00:28:01.883Z,95066.25
2022-11-15T00:30:29.231Z,95065.03
2022-11-15T00:32:56.103Z,95066.16
2022-11-15T00:35:23.220Z,95070.72
2022-11-15T00:37:49.928Z,95046.78
2022-11-15T00:40:16.782Z,95059.16
2022-11-15T00:42:43.364Z,95052.88
2022-11-15T00:45:10.789Z,95049.34
2022-11-15T00:47:37.530Z,95045.63
2022-11-15T00:50:05.323Z,95050.25
2022-11-15T00:52:31.888Z,95056.66
2022-11-15T00:54:58.431Z,95060.31
2022-11-15T00:57:24.948Z,95051.97
2022-11-15T00:59:51.440Z,95054.88
2022-11-15T01:02:18.128Z,95057.06
2022-11-15T01:04:44.801Z,95046.84
2022-11-15T01:07:11.399Z,95056.94
2022-11-15T01:09:38.152Z,95051.69
2022-11-15T01:12:05.304Z,95052.13
2022-11-15T01:14:32.178Z,95047.25
2022-11-15T01:16:58.861Z,95044.34
2022-11-15T01:19:25.520Z,95032.25
2022-11-15T01:21:52.705Z,95046.84
2022-11-15T01:24:19.497Z,95051.50
2022-11-15T01:26:46.139Z,95036.50
2022-11-15T01:29:12.672Z,95037.72
2022-11-15T01:31:39.219Z,95037.75
2022-11-15T01:34:05.802Z,95037.66
2022-11-15T01:36:32.342Z,95039.81
2022-11-15T01:39:00.206Z,95040.28
2022-11-15T01:41:30.146Z,95032.41
2022-11-15T01:44:17.194Z,95026.00
2022-11-15T01:46:48.366Z,95021.03
2022-11-15T01:49:22.041Z,95043.63
2022-11-15T01:51:48.630Z,95031.56
2022-11-15T01:54:18.259Z,95026.84
2022-11-15T01:56:52.359Z,95018.94
2022-11-15T01:59:19.420Z,95018.13
2022-11-15T02:01:46.260Z,95009.94
2022-11-15T02:04:17.771Z,95010.03
2022-11-15T02:06:45.301Z,94995.44
2022-11-15T02:09:13.372Z,94997.38
2022-11-15T02:11:40.206Z,94993.63
2022-11-15T02:14:08.173Z,94995.09
2022-11-15T02:16:51.147Z,94994.63
2022-11-15T02:19:32.998Z,94988.97
2022-11-15T02:22:11.620Z,94993.84
2022-11-15T02:24:53.038Z,94979.56
2022-11-15T02:27:48.727Z,94977.63
2022-11-15T02:30:22.773Z,94985.22
2022-11-15T02:33:15.428Z,94979.91
2022-11-15T02:36:01.939Z,94982.19
2022-11-15T02:39:07.089Z,94984.44
2022-11-15T02:41:39.173Z,94978.47
2022-11-15T02:44:18.589Z,94972.09
2022-11-15T02:47:15.131Z,94967.28
2022-11-15T02:49:53.602Z,94963.16
2022-11-15T02:52:26.293Z,94958.38
2022-11-15T02:54:58.168Z,94964.31
2022-11-15T02:57:33.496Z,94961.69
2022-11-15T03:00:11.835Z,94965.06
2022-11-15T03:03:05.497Z,94954.53
2022-11-15T03:05:40.940Z,94946.59
2022-11-15T03:08:30.219Z,94953.03
2022-11-15T03:11:15.047Z,94953.44
2022-11-15T03:14:01.482Z,94961.72
2022-11-15T03:16:33.044Z,94954.59
2022-11-15T03:19:38.333Z,94957.59
2022-11-15T03:22:10.361Z,94959.09
2022-11-15T03:24:39.424Z,94945.56
2022-11-15T03:27:08.532Z,94944.47
2022-11-15T03:29:38.924Z,94942.59
2022-11-15T03:32:13.156Z,94930.63
2022-11-15T03:34:50.457Z,94926.91
2022-11-15T03:37:18.561Z,94932.16
2022-11-15T03:39:45.348Z,94926.19
2022-11-15T03:42:18.140Z,94927.63
2022-11-15T03:44:56.601Z,94926.09
2022-11-15T03:47:58.616Z,94920.94
2022-11-15T03:50:26.684Z,94910.44
2022-11-15T03:52:55.944Z,94914.13
2022-11-15T03:55:23.396Z,94907.31
2022-11-15T03:57:54.032Z,94905.88
2022-11-15T04:00:20.678Z,94908.50
2022-11-15T04:02:47.339Z,94911.50
2022-11-15T04:05:13.901Z,94910.41
2022-11-15T04:07:40.577Z,94911.94
2022-11-15T04:10:08.017Z,94905.91
2022-11-15T04:12:36.970Z,94917.56
2022-11-15T04:15:09.439Z,94917.13
2022-11-15T04:17:40.426Z,94910.41
2022-11-15T04:20:30.682Z,94901.75
2022-11-15T04:23:17.622Z,94901.41
2022-11-15T04:25:45.492Z,94900.63
2022-11-15T04:28:12.539Z,94896.09
2022-11-15T04:30:39.348Z,94894.19
2022-11-15T04:33:06.136Z,94896.13
2022-11-15T04:35:32.731Z,94869.50
2022-11-15T04:37:59.681Z,94886.44
2022-11-15T04:40:26.432Z,94890.94
2022-11-15T04:42:53.121Z,94889.09
2022-11-15T04:45:19.720Z,94883.47
2022-11-15T04:47:47.280Z,94864.66
2022-11-15T04:50:15.194Z,94881.56
2022-11-15T04:52:51.104Z,94869.16
2022-11-15T04:55:17.713Z,94884.19
2022-11-15T04:57:44.364Z,94870.66
2022-11-15T05:00:13.963Z,94873.69
2022-11-15T05:02:58.934Z,94872.56
2022-11-15T05:05:26.185Z,94866.53
2022-11-15T05:07:52.741Z,94872.97
2022-11-15T05:10:19.400Z,94866.19
2022-11-15T05:12:47.907Z,94848.56
2022-11-15T05:15:14.512Z,94863.19
2022-11-15T05:17:41.021Z,94856.44
2022-11-15T05:20:08.308Z,94860.94
2022-11-15T05:22:34.854Z,94859.41
2022-11-15T05:25:01.337Z,94854.91
2022-11-15T05:27:27.881Z,94847.38
2022-11-15T05:29:54.444Z,94849.59
2022-11-15T05:32:21.708Z,94854.53
2022-11-15T05:34:48.658Z,94843.25
2022-11-15T05:37:15.711Z,94839.50
2022-11-15T05:39:42.216Z,94836.50
2022-11-15T05:42:14.705Z,94831.66
2022-11-15T05:44:45.518Z,94824.91
2022-11-15T05:47:16.260Z,94831.69
2022-11-15T05:49:45.600Z,94827.94
2022-11-15T05:52:17.484Z,94826.44
2022-11-15T05:54:44.580Z,94825.69
2022-11-15T05:57:11.307Z,94828.28
2022-11-15T05:59:38.694Z,94829.44
2022-11-15T06:02:05.294Z,94830.16
2022-11-15T06:04:31.919Z,94822.66
2022-11-15T06:06:59.917Z,94824.16
2022-11-15T06:09:26.662Z,94824.56
2022-11-15T06:11:53.172Z,94821.91
2022-11-15T06:14:19.775Z,94830.19
2022-11-15T06:16:46.328Z,94820.03
2022-11-15T06:19:12.864Z,94829.81
2022-11-15T06:21:39.482Z,94834.66
2022-11-15T06:24:06.727Z,94829.06
2022-11-15T06:26:33.274Z,94837.69
2022-11-15T06:28:59.948Z,94832.06
2022-11-15T06:31:26.436Z,94832.84
2022-11-15T06:33:52.971Z,94842.56
2022-11-15T06:36:19.680Z,94841.81
2022-11-15T06:38:46.287Z,94841.06
2022-11-15T06:41:14.373Z,94843.69
2022-11-15T06:43:42.155Z,94838.84
2022-11-15T06:46:09.453Z,94842.22
2022-11-15T06:48:37.120Z,94844.47
2022-11-15T06:51:05.379Z,94839.22
2022-11-15T06:53:32.675Z,94845.97
2022-11-15T06:56:03.905Z,94846.38
2022-11-15T06:58:30.826Z,94849.75
2022-11-15T07:01:02.713Z,94840.41
2022-11-15T07:03:29.717Z,94842.22
2022-11-15T07:06:02.792Z,94856.50
2022-11-15T07:08:33.287Z,94851.25
2022-11-15T07:11:02.846Z,94853.88
2022-11-15T07:13:34.789Z,94858.03
2022-11-15T07:16:06.815Z,94842.31
2022-11-15T07:18:38.159Z,94850.56
2022-11-15T07:21:06.639Z,94851.28
2022-11-15T07:23:34.086Z,94853.94
2022-11-15T07:26:00.984Z,94859.19
2022-11-15T07:28:28.217Z,94855.44
2022-11-15T07:30:55.366Z,94850.56
2022-11-15T07:33:22.134Z,94847.19
2022-11-15T07:35:51.973Z,94849.44
2022-11-15T07:38:21.461Z,94861.81
2022-11-15T07:40:48.503Z,94851.69
2022-11-15T07:43:15.067Z,94852.03
2022-11-15T07:45:46.266Z,94849.06
2022-11-15T07:48:13.067Z,94846.41
2022-11-15T07:50:43.520Z,94844.50
2022-11-15T07:53:11.419Z,94836.22
2022-11-15T07:55:40.800Z,94845.22
2022-11-15T07:58:12.908Z,94845.22
2022-11-15T08:00:39.556Z,94848.97
2022-11-15T08:03:11.766Z,94849.34
2022-11-15T08:05:40.308Z,94830.53
2022-11-15T08:08:07.688Z,94843.63
2022-11-15T08:10:39.367Z,94838.41
2022-11-15T08:13:12.813Z,94845.13
2022-11-15T08:15:39.793Z,94855.66
2022-11-15T08:18:17.312Z,94855.63
2022-11-15T08:20:44.520Z,94859.41
2022-11-15T08:23:13.821Z,94845.13
2022-11-15T08:25:40.949Z,94849.59
2022-11-15T08:28:08.857Z,94847.28
2022-11-15T08:30:37.839Z,94838.63
2022-11-15T08:33:04.859Z,94831.41
2022-11-15T08:35:31.478Z,94842.63
2022-11-15T08:37:58.002Z,94837.47
2022-11-15T08:40:24.938Z,94840.84
2022-11-15T08:42:51.492Z,94844.19
2022-11-15T08:45:18.014Z,94840.38
2022-11-15T08:47:47.361Z,94840.38
2022-11-15T08:50:17.133Z,94842.53
2022-11-15T08:52:43.684Z,94842.84
2022-11-15T08:55:10.252Z,94835.59
2022-11-15T08:57:36.871Z,94826.47
2022-11-15T09:00:04.767Z,94815.97
2022-11-15T09:02:31.380Z,94799.75
2022-11-15T09:04:57.930Z,94804.31
2022-11-15T09:07:25.827Z,94821.13
2022-11-15T09:09:52.484Z,94816.97
2022-11-15T09:12:18.993Z,94814.44
2022-11-15T09:14:45.555Z,94809.75
2022-11-15T09:17:12.224Z,94808.81
2022-11-15T09:19:38.856Z,94806.94
2022-11-15T09:22:08.937Z,94807.47
2022-11-15T09:24:36.126Z,94790.28
2022-11-15T09:27:04.093Z,94794.47
2022-11-15T09:29:30.707Z,94806.31
2022-11-15T09:31:57.261Z,94807.41
2022-11-15T09:34:23.781Z,94812.25
2022-11-15T09:36:50.367Z,94815.19
2022-11-15T09:39:17.089Z,94790.44
2022-11-15T09:42:09.946Z,94812.19
2022-11-15T09:44:41.908Z,94807.59
2022-11-15T09:47:29.638Z,94816.69
2022-11-15T09:49:59.716Z,94797.59
2022-11-15T09:52:26.404Z,94803.69
2022-11-15T09:54:55.546Z,94810.09
2022-11-15T09:57:38.897Z,94801.50
2022-11-15T10:00:47.401Z,94798.00
2022-11-15T10:03:38.456Z,94797.03
2022-11-15T10:06:07.014Z,94800.88
2022-11-15T10:09:02.322Z,94792.66
2022-11-15T10:11:37.791Z,94792.72
2022-11-15T10:14:16.964Z,94792.81
2022-11-15T10:16:59.220Z,94791.22
2022-11-15T10:19:44.790Z,94779.94
2022-11-15T10:22:27.138Z,94770.03
2022-11-15T10:25:12.395Z,94771.13
2022-11-15T10:27:40.369Z,94765.75
2022-11-15T10:30:16.642Z,94758.16
2022-11-15T10:32:45.457Z,94760.16
2022-11-15T10:35:21.998Z,94743.38
2022-11-15T10:37:48.550Z,94745.53
2022-11-15T10:40:22.651Z,94742.75
2022-11-15T10:43:04.675Z,94737.50
2022-11-15T10:45:33.470Z,94729.16
2022-11-15T10:48:15.062Z,94726.38
2022-11-15T10:50:44.913Z,94717.09
2022-11-15T10:53:31.872Z,94707.97
2022-11-15T10:56:04.492Z,94713.25
2022-11-15T10:58:38.555Z,94707.78
2022-11-15T11:01:19.829Z,94705.78
2022-11-15T11:04:06.348Z,94696.13
2022-11-15T11:06:56.599Z,94692.59
2022-11-15T11:09:34.388Z,94677.72
2022-11-15T11:12:02.329Z,94676.44
2022-11-15T11:14:37.814Z,94674.22
2022-11-15T11:17:23.313Z,94680.31
2022-11-15T11:19:58.035Z,94681.00
2022-11-15T11:23:03.914Z,94664.91
2022-11-15T11:26:04.250Z,94657.66
2022-11-15T11:28:58.908Z,94662.13
2022-11-15T11:31:50.160Z,94666.63
2022-11-15T11:34:19.082Z,94659.69
2022-11-15T11:36:45.583Z,94662.28
2022-11-15T11:39:26.993Z,94657.78
2022-11-15T11:42:01.172Z,94652.59
2022-11-15T11:44:33.854Z,94650.53
2022-11-15T11:47:19.645Z,94637.50
2022-11-15T11:49:55.337Z,94642.50
2022-11-15T11:52:28.084Z,94643.66
2022-11-15T11:55:04.056Z,94644.22
2022-11-15T11:57:40.978Z,94638.84
2022-11-15T12:00:29.570Z,94632.75
2022-11-15T12:03:06.504Z,94627.19
2022-11-15T12:05:38.709Z,94609.97
2022-11-15T12:08:23.604Z,94613.81
2022-11-15T12:10:58.931Z,94620.03
2022-11-15T12:13:27.753Z,94618.69
2022-11-15T12:16:16.012Z,94615.34
2022-11-15T12:18:48.550Z,94600.16
2022-11-15T12:21:28.282Z,94599.44
2022-11-15T12:24:02.293Z,94604.22
2022-11-15T12:26:37.327Z,94583.16
2022-11-15T12:29:20.185Z,94585.69
2022-11-15T12:31:53.211Z,94578.22
2022-11-15T12:34:23.018Z,94578.91
2022-11-15T12:36:51.497Z,94574.16
2022-11-15T12:39:19.278Z,94574.94
2022-11-15T12:42:05.849Z,94578.63
2022-11-15T12:44:32.444Z,94563.81
2022-11-15T12:46:58.902Z,94558.59
2022-11-15T12:49:45.388Z,94559.53
2022-11-15T12:52:11.920Z,94550.75
2022-11-15T12:54:41.406Z,94556.44
2022-11-15T12:57:08.060Z,94547.31
2022-11-15T12:59:56.134Z,94543.69
2022-11-15T13:02:36.282Z,94534.19
2022-11-15T13:05:23.861Z,94524.91
2022-11-15T13:07:50.974Z,94517.84
2022-11-15T13:10:17.435Z,94527.75
2022-11-15T13:12:46.586Z,94513.06
2022-11-15T13:15:13.286Z,94520.03
2022-11-15T13:17:57.265Z,94511.03
2022-11-15T13:20:28.677Z,94515.63
2022-11-15T13:23:09.355Z,94505.09
2022-11-15T13:25:41.994Z,94514.22
2022-11-15T13:28:17.094Z,94508.41
2022-11-15T13:30:56.197Z,94506.41
2022-11-15T13:33:22.656Z,94506.28
2022-11-15T13:35:52.874Z,94488.38
2022-11-15T13:38:25.125Z,94493.00
2022-11-15T13:40:52.376Z,94479.72
2022-11-15T13:43:39.180Z,94491.09
2022-11-15T13:46:25.591Z,94490.47
2022-11-15T13:49:02.326Z,94496.81
2022-11-15T13:51:51.649Z,94486.69
2022-11-15T13:54:33.011Z,94481.56
2022-11-15T13:57:05.357Z,94468.53
2022-11-15T13:59:36.112Z,94472.84
2022-11-15T14:02:23.556Z,94458.22
2022-11-15T14:04:58.082Z,94447.69
2022-11-15T14:07:27.512Z,94436.63
2022-11-15T14:09:54.506Z,94440.25
2022-11-15T14:12:35.882Z,94445.72
2022-11-15T14:15:39.574Z,94445.72
2022-11-15T14:18:07.432Z,94446.69
2022-11-15T14:20:39.964Z,94443.63
2022-11-15T14:23:28.727Z,94428.66
2022-11-15T14:25:58.237Z,94425.19
2022-11-15T14:28:24.667Z,94420.75
2022-11-15T14:30:57.924Z,94417.94
2022-11-15T14:33:34.677Z,94418.34
2022-11-15T14:36:15.656Z,94413.41
2022-11-15T14:38:43.990Z,94407.44
2022-11-15T14:41:25.266Z,94402.41
2022-11-15T14:43:53.740Z,94401.28
2022-11-15T14:46:20.624Z,94394.09
2022-11-15T14:48:47.385Z,94389.50
2022-11-15T14:51:16.346Z,94393.44
2022-11-15T14:53:43.699Z,94391.47
2022-11-15T14:56:11.224Z,94385.03
2022-11-15T14:58:38.058Z,94382.56
2022-11-15T15:01:14.180Z,94390.81
2022-11-15T15:03:40.884Z,94386.03
2022-11-15T15:06:07.507Z,94388.75
2022-11-15T15:08:34.517Z,94386.00
2022-11-15T15:11:01.524Z,94388.34
2022-11-15T15:13:29.741Z,94385.00
2022-11-15T15:15:56.321Z,94363.38
2022-11-15T15:18:22.857Z,94360.69
2022-11-15T15:20:57.967Z,94358.44
2022-11-15T15:23:26.538Z,94354.13
2022-11-15T15:25:53.803Z,94337.63
2022-11-15T15:28:20.346Z,94340.94
2022-11-15T15:30:46.896Z,94347.34
2022-11-15T15:33:13.457Z,94330.84
2022-11-15T15:35:40.529Z,94347.16
2022-11-15T15:38:07.058Z,94345.13
2022-11-15T15:40:34.444Z,94344.56
2022-11-15T15:43:01.367Z,94337.88
2022-11-15T15:45:29.070Z,94347.38
2022-11-15T15:47:56.166Z,94348.66
2022-11-15T15:50:23.194Z,94346.41
2022-11-15T15:52:54.332Z,94339.13
2022-11-15T15:55:21.106Z,94333.63
2022-11-15T15:57:48.258Z,94321.28
2022-11-15T16:00:15.713Z,94328.81
2022-11-15T16:02:43.096Z,94317.34
2022-11-15T16:05:11.046Z,94317.94
2022-11-15T16:07:38.536Z,94324.56
2022-11-15T16:10:17.421Z,94319.41
2022-11-15T16:12:44.659Z,94306.88
2022-11-15T16:15:11.233Z,94314.41
2022-11-15T16:17:47.901Z,94302.63
2022-11-15T16:20:33.168Z,94302.16
2022-11-15T16:23:04.373Z,94307.47
2022-11-15T16:25:47.182Z,94303.69
2022-11-15T16:28:31.124Z,94300.13
2022-11-15T16:31:03.829Z,94296.78
2022-11-15T16:33:30.902Z,94285.06
2022-11-15T16:35:58.173Z,94286.31
2022-11-15T16:38:24.904Z,94287.19
2022-11-15T16:40:51.428Z,94284.66
2022-11-15T16:43:18.385Z,94284.03
2022-11-15T16:45:45.136Z,94278.09
2022-11-15T16:48:22.583Z,94283.91
2022-11-15T16:50:49.165Z,94281.56
2022-11-15T16:53:15.693Z,94273.41
2022-11-15T16:55:42.235Z,94272.81
2022-11-15T16:58:10.204Z,94264.47
2022-11-15T17:00:36.815Z,94243.41
2022-11-15T17:03:03.897Z,94260.00
2022-11-15T17:05:30.578Z,94260.22
2022-11-15T17:07:57.532Z,94254.78
2022-11-15T17:10:25.564Z,94247.78
2022-11-15T17:12:52.967Z,94236.22
2022-11-15T17:15:19.641Z,94235.34
2022-11-15T17:17:54.648Z,94233.28
2022-11-15T17:20:24.314Z,94234.91
2022-11-15T17:22:52.695Z,94240.41
2022-11-15T17:25:19.729Z,94233.44
2022-11-15T17:27:46.512Z,94222.38
2022-11-15T17:30:15.556Z,94232.88
2022-11-15T17:32:43.101Z,94213.56
2022-11-15T17:35:15.330Z,94228.13
2022-11-15T17:37:42.730Z,94226.31
2022-11-15T17:40:10.285Z,94215.25
2022-11-15T17:42:36.821Z,94234.91
2022-11-15T17:45:09.350Z,94206.63
2022-11-15T17:47:36.925Z,94221.63
2022-11-15T17:50:03.709Z,94232.50
2022-11-15T17:52:30.204Z,94222.22
2022-11-15T17:54:56.981Z,94216.09
2022-11-15T17:57:23.508Z,94217.66
2022-11-15T17:59:50.055Z,94208.19
2022-11-15T18:02:16.634Z,94208.97
2022-11-15T18:04:43.156Z,94197.31
2022-11-15T18:07:11.759Z,94199.31
2022-11-15T18:09:42.368Z,94201.41
2022-11-15T18:12:09.346Z,94190.56
2022-11-15T18:14:35.894Z,94205.03
2022-11-15T18:17:02.442Z,94206.88
2022-11-15T18:19:29.042Z,94206.94
2022-11-15T18:22:00.244Z,94207.75
2022-11-15T18:24:34.978Z,94208.38
2022-11-15T18:27:03.132Z,94194.59
2022-11-15T18:29:30.085Z,94203.69
2022-11-15T18:31:57.141Z,94203.94
2022-11-15T18:34:25.462Z,94215.59
2022-11-15T18:36:52.952Z,94217.25
2022-11-15T18:39:20.283Z,94218.41
2022-11-15T18:41:47.358Z,94224.50
2022-11-15T18:44:14.203Z,94218.53
2022-11-15T18:46:42.408Z,94224.66
2022-11-15T18:49:10.509Z,94230.19
2022-11-15T18:51:41.979Z,94203.47
2022-11-15T18:54:14.334Z,94190.50
2022-11-15T18:56:44.221Z,94188.16
2022-11-15T18:59:10.776Z,94188.16
2022-11-15T19:01:40.329Z,94188.38
2022-11-15T19:04:15.839Z,94178.63
2022-11-15T19:06:44.487Z,94166.53
2022-11-15T19:09:13.937Z,94175.34
2022-11-15T19:11:42.000Z,94162.69
2022-11-15T19:14:09.944Z,94163.75
2022-11-15T19:16:39.016Z,94141.75
2022-11-15T19:19:28.604Z,94136.56
2022-11-15T19:21:57.097Z,94139.19
2022-11-15T19:24:23.806Z,94140.91
2022-11-15T19:26:50.450Z,94141.53
2022-11-15T19:29:18.276Z,94152.84
2022-11-15T19:31:45.419Z,94148.44
2022-11-15T19:34:12.981Z,94130.81
2022-11-15T19:36:44.479Z,94140.69
2022-11-15T19:39:13.895Z,94141.91
2022-11-15T19:41:42.792Z,94149.34
2022-11-15T19:44:11.206Z,94146.44
2022-11-15T19:46:38.781Z,94152.09
2022-11-15T19:49:07.881Z,94158.97
2022-11-15T19:51:34.526Z,94162.66
2022-11-15T19:54:06.647Z,94164.25
2022-11-15T19:56:34.646Z,94164.13
2022-11-15T19:59:01.422Z,94158.75
2022-11-15T20:01:33.724Z,94162.88
2022-11-15T20:04:00.633Z,94158.97
2022-11-15T20:06:29.906Z,94163.81
2022-11-15T20:08:57.343Z,94161.56
2022-11-15T20:11:24.469Z,94166.66
2022-11-15T20:13:50.993Z,94167.56
2022-11-15T20:16:20.709Z,94161.16
2022-11-15T20:18:48.786Z,94158.41
2022-11-15T20:21:16.062Z,94160.53
2022-11-15T20:23:43.376Z,94164.88
2022-11-15T20:26:11.491Z,94170.41
2022-11-15T20:28:39.559Z,94165.38
2022-11-15T20:31:07.224Z,94163.53
2022-11-15T20:33:34.481Z,94170.34
2022-11-15T20:36:10.135Z,94168.53
2022-11-15T20:38:37.494Z,94171.75
2022-11-15T20:41:04.633Z,94168.22
2022-11-15T20:43:31.437Z,94165.59
2022-11-15T20:45:58.361Z,94162.88
2022-11-15T20:48:24.885Z,94163.88
2022-11-15T20:50:51.571Z,94162.91
2022-11-15T20:53:19.633Z,94157.25
2022-11-15T20:55:49.042Z,94151.72
2022-11-15T20:58:16.706Z,94141.34
2022-11-15T21:00:44.903Z,94158.69
2022-11-15T21:03:12.946Z,94154.50
2022-11-15T21:05:41.426Z,94162.19
2022-11-15T21:08:09.316Z,94151.06
2022-11-15T21:10:54.579Z,94157.19
2022-11-15T21:13:21.917Z,94157.13
2022-11-15T21:15:48.527Z,94145.16
2022-11-15T21:18:53.552Z,94139.03
2022-11-15T21:22:19.052Z,94133.44
2022-11-15T21:24:55.201Z,94118.06
2022-11-15T21:27:21.851Z,94121.66
2022-11-15T21:29:51.288Z,94118.78
2022-11-15T21:32:17.868Z,94123.03
2022-11-15T21:34:44.413Z,94119.13
2022-11-15T21:37:11.081Z,94127.44
2022-11-15T21:39:38.473Z,94127.03
2022-11-15T21:42:05.143Z,94124.25
2022-11-15T21:44:31.990Z,94116.81
2022-11-15T21:46:58.510Z,94121.75
2022-11-15T21:49:25.073Z,94117.25
2022-11-15T21:51:51.614Z,94122.91
2022-11-15T21:54:18.179Z,94123.03
2022-11-15T21:56:44.773Z,94133.09
2022-11-15T21:59:11.355Z,94128.00
2022-11-15T22:01:56.784Z,94126.66
2022-11-15T22:04:24.223Z,94124.31
2022-11-15T22:06:51.387Z,94103.56
2022-11-15T22:09:17.997Z,94115.09
2022-11-15T22:11:45.345Z,94099.06
2022-11-15T22:14:11.975Z,94110.31
2022-11-15T22:16:39.256Z,94110.25
2022-11-15T22:19:05.754Z,94110.78
2022-11-15T22:21:32.420Z,94099.44
2022-11-15T22:23:59.024Z,94100.94
2022-11-15T22:26:25.514Z,94108.19
2022-11-15T22:28:52.242Z,94112.50
2022-11-15T22:31:19.088Z,94104.28
2022-11-15T22:33:45.965Z,94107.28
2022-11-15T22:36:13.029Z,94116.31
2022-11-15T22:38:39.988Z,94113.44
2022-11-15T22:41:06.562Z,94098.53
2022-11-15T22:43:33.340Z,94095.28
2022-11-15T22:46:01.090Z,94094.13
2022-11-15T22:48:31.107Z,94104.09
2022-11-15T22:50:58.260Z,94100.94
2022-11-15T22:53:25.306Z,94092.09
2022-11-15T22:56:00.352Z,94102.59
2022-11-15T22:58:30.396Z,94104.88
2022-11-15T23:00:59.665Z,94099.31
2022-11-15T23:03:27.367Z,94097.28
2022-11-15T23:05:54.172Z,94100.19
2022-11-15T23:08:22.963Z,94092.09
2022-11-15T23:11:08.084Z,94101.25
2022-11-15T23:13:34.642Z,94098.25
2022-11-15T23:16:22.692Z,94106.06
2022-11-15T23:18:54.821Z,94120.94
2022-11-15T23:21:48.988Z,94118.00
2022-11-15T23:24:16.517Z,94107.66
2022-11-15T23:26:44.521Z,94100.34
2022-11-15T23:29:13.593Z,94100.47
2022-11-15T23:32:01.906Z,94100.41
2022-11-15T23:34:35.477Z,94114.19
2022-11-15T23:37:02.132Z,94107.63
2022-11-15T23:39:28.762Z,94092.84
2022-11-15T23:41:55.795Z,94090.03
2022-11-15T23:44:22.862Z,94106.75
2022-11-15T23:46:49.388Z,94104.69
2022-11-15T23:49:16.115Z,94098.25
2022-11-15T23:51:42.691Z,94099.56
2022-11-15T23:54:09.825Z,94094.59
2022-11-15T23:56:36.864Z,94087.97
2022-11-15T23:59:04.816Z,94090.47
